createdAt,value
2023-05-09T00:02:25.346Z,100.00
2023-05-09T00:04:51.831Z,100.00
2023-05-09T00:07:18.168Z,100.00
2023-05-09T00:09:44.570Z,100.00
2023-05-09T00:12:12.272Z,100.00
2023-05-09T00:14:40.621Z,100.00
2023-05-09T00:17:07.784Z,100.00
2023-05-09T00:19:37.913Z,100.00
2023-05-09T00:22:04.226Z,100.00
2023-05-09T00:24:30.573Z,100.00
2023-05-09T00:26:56.929Z,100.00
2023-05-09T00:29:23.260Z,100.00
2023-05-09T00:31:49.593Z,100.00
2023-05-09T00:34:16.001Z,100.00
2023-05-09T00:36:42.380Z,100.00
2023-05-09T00:39:09.635Z,100.00
2023-05-09T00:41:40.111Z,100.00
2023-05-09T00:44:06.928Z,100.00
2023-05-09T00:46:33.323Z,100.00
2023-05-09T00:49:00.294Z,100.00
2023-05-09T00:51:28.456Z,100.00
2023-05-09T00:53:59.969Z,100.00
2023-05-09T00:56:26.743Z,100.00
2023-05-09T00:58:53.174Z,100.00
2023-05-09T01:01:19.556Z,100.00
2023-05-09T01:03:47.317Z,100.00
2023-05-09T01:06:13.713Z,100.00
2023-05-09T01:08:59.612Z,100.00
2023-05-09T01:11:34.589Z,100.00
2023-05-09T01:14:10.101Z,100.00
2023-05-09T01:16:36.442Z,100.00
2023-05-09T01:19:14.329Z,100.00
2023-05-09T01:21:42.556Z,100.00
2023-05-09T01:24:23.952Z,100.00
2023-05-09T01:27:09.220Z,100.00
2023-05-09T01:29:38.629Z,100.00
2023-05-09T01:32:08.130Z,100.00
2023-05-09T01:34:35.443Z,100.00
2023-05-09T01:37:04.547Z,100.00
2023-05-09T01:39:32.780Z,100.00
2023-05-09T01:42:01.343Z,100.00
2023-05-09T01:44:31.076Z,100.00
2023-05-09T01:46:58.822Z,100.00
2023-05-09T01:49:26.203Z,100.00
2023-05-09T01:51:54.038Z,100.00
2023-05-09T01:54:22.185Z,100.00
2023-05-09T01:56:49.589Z,100.00
2023-05-09T01:59:16.316Z,100.00
2023-05-09T02:01:43.420Z,100.00
2023-05-09T02:04:10.060Z,100.00
2023-05-09T02:06:36.764Z,100.00
2023-05-09T02:09:08.412Z,100.00
2023-05-09T02:11:34.714Z,100.00
2023-05-09T02:14:01.023Z,100.00
2023-05-09T02:16:27.857Z,100.00
2023-05-09T02:18:54.228Z,100.00
2023-05-09T02:21:20.598Z,100.00
2023-05-09T02:23:47.103Z,100.00
2023-05-09T02:26:13.773Z,100.00
2023-05-09T02:28:40.850Z,100.00
2023-05-09T02:31:08.288Z,100.00
2023-05-09T02:33:35.867Z,100.00
2023-05-09T02:36:02.493Z,100.00
2023-05-09T02:38:32.181Z,100.00
2023-05-09T02:40:58.483Z,100.00
2023-05-09T02:43:24.811Z,100.00
2023-05-09T02:45:51.140Z,100.00
2023-05-09T02:48:17.696Z,100.00
2023-05-09T02:50:44.327Z,100.00
2023-05-09T02:53:10.782Z,100.00
2023-05-09T02:55:37.290Z,100.00
2023-05-09T02:58:13.596Z,100.00
2023-05-09T03:00:41.005Z,100.00
2023-05-09T03:03:07.459Z,100.00
2023-05-09T03:05:34.018Z,100.00
2023-05-09T03:08:00.324Z,100.00
2023-05-09T03:10:26.672Z,100.00
2023-05-09T03:12:53.009Z,100.00
2023-05-09T03:15:26.130Z,100.00
2023-05-09T03:17:52.487Z,100.00
2023-05-09T03:20:18.886Z,100.00
2023-05-09T03:22:45.337Z,100.00
2023-05-09T03:25:11.789Z,100.00
2023-05-09T03:27:38.157Z,100.00
2023-05-09T03:30:04.694Z,100.00
2023-05-09T03:32:31.177Z,100.00
2023-05-09T03:34:57.537Z,100.00
2023-05-09T03:37:26.258Z,100.00
2023-05-09T03:39:53.334Z,100.00
2023-05-09T03:42:19.676Z,100.00
2023-05-09T03:44:46.438Z,100.00
2023-05-09T03:47:12.738Z,100.00
2023-05-09T03:49:39.042Z,100.00
2023-05-09T03:52:06.388Z,100.00
2023-05-09T03:54:32.693Z,100.00
2023-05-09T03:56:59.070Z,100.00
2023-05-09T03:59:25.512Z,100.00
2023-05-09T04:01:52.274Z,100.00
2023-05-09T04:04:18.627Z,100.00
2023-05-09T04:06:44.992Z,100.00
2023-05-09T04:09:11.326Z,100.00
2023-05-09T04:11:37.685Z,100.00
2023-05-09T04:14:07.006Z,100.00
2023-05-09T04:16:33.574Z,100.00
2023-05-09T04:18:59.921Z,100.00
2023-05-09T04:21:26.234Z,100.00
2023-05-09T04:23:56.620Z,100.00
2023-05-09T04:26:22.956Z,100.00
2023-05-09T04:28:49.253Z,100.00
2023-05-09T04:31:15.742Z,100.00
2023-05-09T04:33:42.117Z,100.00
2023-05-09T04:36:08.981Z,100.00
2023-05-09T04:38:35.471Z,100.00
2023-05-09T04:41:01.790Z,100.00
2023-05-09T04:43:28.244Z,100.00
2023-05-09T04:45:54.657Z,100.00
2023-05-09T04:48:21.020Z,100.00
2023-05-09T04:50:48.594Z,100.00
2023-05-09T04:53:15.011Z,100.00
2023-05-09T04:55:41.311Z,100.00
2023-05-09T04:58:09.100Z,100.00
2023-05-09T05:00:35.712Z,100.00
2023-05-09T05:03:02.082Z,100.00
2023-05-09T05:05:28.657Z,100.00
2023-05-09T05:07:55.505Z,100.00
2023-05-09T05:10:21.937Z,100.00
2023-05-09T05:12:48.356Z,100.00
2023-05-09T05:15:16.017Z,100.00
2023-05-09T05:17:42.596Z,100.00
2023-05-09T05:20:10.570Z,100.00
2023-05-09T05:22:36.946Z,100.00
2023-05-09T05:25:06.360Z,100.00
2023-05-09T05:27:32.689Z,100.00
2023-05-09T05:29:59.032Z,100.00
2023-05-09T05:32:25.513Z,100.00
2023-05-09T05:34:51.910Z,100.00
2023-05-09T05:37:18.240Z,100.00
2023-05-09T05:39:44.564Z,100.00
2023-05-09T05:42:10.886Z,100.00
2023-05-09T05:44:37.189Z,100.00
2023-05-09T05:47:03.505Z,100.00
2023-05-09T05:49:29.836Z,100.00
2023-05-09T05:51:56.145Z,100.00
2023-05-09T05:54:22.461Z,100.00
2023-05-09T05:56:48.979Z,100.00
2023-05-09T05:59:16.223Z,100.00
2023-05-09T06:01:42.593Z,100.00
2023-05-09T06:04:08.995Z,100.00
2023-05-09T06:06:35.422Z,100.00
2023-05-09T06:09:01.779Z,100.00
2023-05-09T06:11:28.342Z,100.00
2023-05-09T06:13:54.671Z,100.00
2023-05-09T06:16:23.112Z,100.00
2023-05-09T06:18:57.755Z,100.00
2023-05-09T06:21:24.153Z,100.00
2023-05-09T06:24:06.542Z,100.00
2023-05-09T06:26:36.535Z,100.00
2023-05-09T06:29:03.234Z,100.00
2023-05-09T06:31:30.770Z,100.00
2023-05-09T06:33:58.170Z,100.00
2023-05-09T06:36:26.199Z,100.00
2023-05-09T06:38:52.508Z,100.00
2023-05-09T06:41:18.834Z,100.00
2023-05-09T06:43:45.621Z,100.00
2023-05-09T06:46:14.084Z,100.00
2023-05-09T06:48:40.791Z,100.00
2023-05-09T06:51:07.464Z,100.00
2023-05-09T06:53:33.965Z,100.00
2023-05-09T06:56:00.482Z,100.00
2023-05-09T06:58:27.479Z,100.00
2023-05-09T07:00:53.995Z,100.00
2023-05-09T07:03:20.328Z,100.00
2023-05-09T07:05:46.741Z,100.00
2023-05-09T07:08:13.093Z,100.00
2023-05-09T07:10:39.618Z,100.00
2023-05-09T07:13:06.191Z,100.00
2023-05-09T07:15:41.157Z,100.00
2023-05-09T07:18:08.845Z,100.00
2023-05-09T07:20:35.241Z,100.00
2023-05-09T07:23:03.966Z,100.00
2023-05-09T07:25:30.500Z,100.00
2023-05-09T07:27:56.862Z,100.00
2023-05-09T07:30:23.263Z,100.00
2023-05-09T07:32:49.599Z,100.00
2023-05-09T07:35:16.227Z,100.00
2023-05-09T07:37:42.659Z,100.00
2023-05-09T07:40:09.568Z,100.00
2023-05-09T07:42:35.959Z,100.00
2023-05-09T07:45:04.391Z,100.00
2023-05-09T07:47:30.707Z,100.00
2023-05-09T07:49:57.028Z,100.00
2023-05-09T07:52:23.564Z,100.00
2023-05-09T07:54:49.985Z,100.00
2023-05-09T07:57:16.617Z,100.00
2023-05-09T07:59:42.900Z,100.00
2023-05-09T08:02:09.296Z,100.00
2023-05-09T08:04:38.225Z,100.00
2023-05-09T08:07:04.890Z,100.00
2023-05-09T08:09:31.202Z,100.00
2023-05-09T08:11:57.517Z,100.00
2023-05-09T08:14:23.913Z,100.00
2023-05-09T08:16:50.238Z,100.00
2023-05-09T08:19:16.594Z,100.00
2023-05-09T08:21:42.922Z,100.00
2023-05-09T08:24:09.676Z,100.00
2023-05-09T08:26:35.983Z,100.00
2023-05-09T08:29:02.340Z,100.00
2023-05-09T08:31:28.795Z,100.00
2023-05-09T08:33:55.307Z,100.00
2023-05-09T08:36:21.606Z,100.00
2023-05-09T08:38:47.927Z,100.00
2023-05-09T08:41:14.438Z,100.00
2023-05-09T08:43:40.845Z,100.00
2023-05-09T08:46:08.617Z,100.00
2023-05-09T08:48:38.409Z,100.00
2023-05-09T08:51:05.212Z,100.00
2023-05-09T08:53:32.016Z,100.00
2023-05-09T08:55:58.958Z,100.00
2023-05-09T08:58:25.308Z,100.00
2023-05-09T09:00:53.407Z,100.00
2023-05-09T09:03:20.140Z,100.00
2023-05-09T09:05:47.828Z,100.00
2023-05-09T09:08:14.343Z,100.00
2023-05-09T09:10:47.385Z,100.00
2023-05-09T09:13:15.056Z,100.00
2023-05-09T09:15:43.186Z,100.00
2023-05-09T09:18:10.314Z,100.00
2023-05-09T09:20:47.976Z,100.00
2023-05-09T09:23:17.895Z,100.00
2023-05-09T09:25:45.778Z,100.00
2023-05-09T09:28:12.524Z,100.00
2023-05-09T09:30:47.510Z,100.00
2023-05-09T09:33:23.886Z,100.00
2023-05-09T09:35:51.427Z,100.00
2023-05-09T09:38:18.690Z,100.00
2023-05-09T09:40:49.332Z,100.00
2023-05-09T09:43:15.954Z,100.00
2023-05-09T09:45:42.288Z,100.00
2023-05-09T09:48:08.647Z,100.00
2023-05-09T09:50:35.061Z,100.00
2023-05-09T09:53:05.557Z,100.00
2023-05-09T09:55:32.007Z,100.00
2023-05-09T09:57:58.438Z,100.00
2023-05-09T10:00:26.500Z,100.00
2023-05-09T10:02:56.104Z,100.00
2023-05-09T10:05:26.659Z,100.00
2023-05-09T10:07:58.719Z,100.00
2023-05-09T10:10:29.157Z,100.00
2023-05-09T10:12:59.480Z,100.00
2023-05-09T10:17:58.746Z,100.00
2023-05-09T10:20:25.309Z,100.00
2023-05-09T10:22:56.201Z,100.00
2023-05-09T10:25:25.859Z,100.00
2023-05-09T10:27:53.953Z,100.00
2023-05-09T10:30:27.027Z,100.00
2023-05-09T10:33:03.564Z,100.00
2023-05-09T10:35:32.951Z,100.00
2023-05-09T10:37:59.851Z,100.00
2023-05-09T10:40:27.536Z,100.00
2023-05-09T10:42:53.843Z,100.00
2023-05-09T10:45:21.488Z,100.00
2023-05-09T10:47:49.762Z,100.00
2023-05-09T10:50:21.214Z,100.00
2023-05-09T10:53:11.035Z,100.00
2023-05-09T10:55:38.598Z,100.00
2023-05-09T10:58:20.333Z,100.00
2023-05-09T11:00:47.659Z,100.00
2023-05-09T11:03:14.107Z,100.00
2023-05-09T11:05:40.792Z,100.00
2023-05-09T11:08:25.504Z,100.00
2023-05-09T11:10:52.580Z,100.00
2023-05-09T11:13:20.120Z,100.00
2023-05-09T11:16:01.814Z,100.00
2023-05-09T11:18:33.420Z,100.00
2023-05-09T11:20:59.916Z,100.00
2023-05-09T11:23:27.333Z,100.00
2023-05-09T11:25:55.899Z,100.00
2023-05-09T11:28:27.016Z,100.00
2023-05-09T11:30:54.848Z,100.00
2023-05-09T11:33:23.893Z,100.00
2023-05-09T11:36:08.967Z,100.00
2023-05-09T11:38:42.654Z,100.00
2023-05-09T11:41:09.239Z,100.00
2023-05-09T11:43:36.663Z,100.00
2023-05-09T11:46:06.244Z,98.52
2023-05-09T11:48:37.539Z,94.76
2023-05-09T11:51:04.657Z,100.00
2023-05-09T11:53:31.682Z,99.62
2023-05-09T11:55:58.055Z,100.00
2023-05-09T11:58:24.354Z,100.00
2023-05-09T12:00:51.669Z,100.00
2023-05-09T12:03:18.938Z,100.00
2023-05-09T12:05:48.081Z,96.53
2023-05-09T12:08:15.430Z,97.70
2023-05-09T12:10:41.715Z,99.92
2023-05-09T12:13:10.316Z,100.00
2023-05-09T12:15:37.868Z,100.00
2023-05-09T12:18:05.482Z,100.00
2023-05-09T12:20:41.159Z,100.00
2023-05-09T12:23:08.767Z,100.00
2023-05-09T12:25:35.084Z,100.00
2023-05-09T12:28:01.938Z,100.00
2023-05-09T12:30:29.609Z,96.23
2023-05-09T12:32:56.221Z,98.22
2023-05-09T12:35:25.521Z,100.00
2023-05-09T12:37:56.228Z,99.89
2023-05-09T12:40:22.692Z,93.70
2023-05-09T12:43:00.938Z,94.36
2023-05-09T12:45:27.498Z,93.92
2023-05-09T12:47:53.935Z,94.17
2023-05-09T12:50:20.469Z,93.23
2023-05-09T12:53:02.042Z,94.45
2023-05-09T12:55:29.690Z,94.59
2023-05-09T12:58:00.326Z,98.63
2023-05-09T13:00:26.689Z,100.00
2023-05-09T13:02:53.174Z,98.68
2023-05-09T13:05:20.803Z,99.30
2023-05-09T13:07:48.449Z,90.05
2023-05-09T13:10:15.775Z,86.88
2023-05-09T13:12:45.337Z,82.96
2023-05-09T13:15:12.128Z,86.46
2023-05-09T13:17:38.782Z,89.01
2023-05-09T13:20:05.627Z,88.46
2023-05-09T13:22:32.137Z,84.28
2023-05-09T13:24:58.566Z,84.76
2023-05-09T13:27:24.892Z,82.69
2023-05-09T13:29:51.198Z,82.59
2023-05-09T13:32:17.487Z,81.31
2023-05-09T13:34:43.866Z,86.57
2023-05-09T13:37:14.163Z,84.92
2023-05-09T13:39:40.578Z,84.26
2023-05-09T13:42:15.933Z,87.20
2023-05-09T13:44:43.682Z,86.90
2023-05-09T13:47:11.127Z,88.02
2023-05-09T13:49:38.298Z,84.99
2023-05-09T13:52:05.128Z,85.97
2023-05-09T13:54:35.032Z,85.75
2023-05-09T13:57:02.227Z,82.47
2023-05-09T13:59:28.880Z,81.46
2023-05-09T14:01:57.507Z,82.02
2023-05-09T14:04:24.096Z,81.84
2023-05-09T14:06:50.495Z,83.07
2023-05-09T14:09:17.203Z,83.75
2023-05-09T14:11:43.523Z,86.81
2023-05-09T14:14:09.866Z,87.16
2023-05-09T14:16:36.208Z,85.65
2023-05-09T14:19:02.611Z,80.97
2023-05-09T14:21:28.945Z,80.00
2023-05-09T14:23:55.255Z,84.65
2023-05-09T14:26:22.128Z,87.44
2023-05-09T14:28:48.583Z,89.57
2023-05-09T14:31:15.076Z,85.28
2023-05-09T14:33:41.407Z,87.32
2023-05-09T14:36:07.834Z,86.67
2023-05-09T14:38:34.332Z,85.18
2023-05-09T14:41:02.303Z,86.58
2023-05-09T14:43:28.655Z,86.43
2023-05-09T14:45:55.274Z,83.54
2023-05-09T14:48:21.949Z,83.21
2023-05-09T14:50:49.662Z,83.44
2023-05-09T14:53:16.556Z,79.13
2023-05-09T14:55:42.905Z,78.89
2023-05-09T14:58:09.399Z,83.43
2023-05-09T15:00:35.741Z,82.47
2023-05-09T15:03:02.178Z,81.63
2023-05-09T15:05:28.540Z,80.65
2023-05-09T15:07:54.919Z,80.16
2023-05-09T15:10:21.309Z,79.89
2023-05-09T15:12:47.612Z,78.94
2023-05-09T15:15:15.232Z,80.36
2023-05-09T15:17:42.959Z,78.25
2023-05-09T15:20:11.772Z,76.06
2023-05-09T15:22:38.090Z,76.81
2023-05-09T15:25:06.189Z,78.38
2023-05-09T15:27:34.826Z,81.96
2023-05-09T15:30:01.224Z,77.41
2023-05-09T15:32:28.291Z,79.13
2023-05-09T15:34:54.644Z,75.17
2023-05-09T15:37:22.084Z,77.11
2023-05-09T15:39:48.400Z,78.11
2023-05-09T15:42:15.155Z,80.44
2023-05-09T15:44:42.365Z,80.97
2023-05-09T15:47:09.280Z,82.27
2023-05-09T15:49:36.012Z,82.16
2023-05-09T15:52:03.502Z,82.66
2023-05-09T15:54:32.812Z,82.10
2023-05-09T15:56:59.396Z,81.67
2023-05-09T15:59:26.155Z,80.25
2023-05-09T16:01:52.595Z,79.17
2023-05-09T16:04:19.012Z,80.79
2023-05-09T16:06:45.435Z,78.84
2023-05-09T16:09:11.935Z,81.66
2023-05-09T16:11:38.305Z,79.46
2023-05-09T16:14:07.446Z,78.09
2023-05-09T16:16:33.918Z,75.35
2023-05-09T16:19:00.362Z,77.14
2023-05-09T16:21:29.113Z,75.92
2023-05-09T16:23:57.698Z,76.68
2023-05-09T16:26:24.005Z,76.89
2023-05-09T16:28:50.430Z,78.01
2023-05-09T16:31:16.813Z,75.96
2023-05-09T16:33:43.921Z,77.09
2023-05-09T16:36:10.249Z,77.23
2023-05-09T16:38:36.813Z,77.16
2023-05-09T16:41:03.189Z,75.38
2023-05-09T16:43:30.667Z,77.78
2023-05-09T16:45:57.439Z,78.94
2023-05-09T16:48:23.880Z,80.72
2023-05-09T16:50:53.474Z,82.10
2023-05-09T16:53:22.598Z,82.63
2023-05-09T16:55:55.859Z,83.42
2023-05-09T16:58:22.252Z,83.02
2023-05-09T17:00:49.996Z,81.64
2023-05-09T17:03:16.352Z,81.11
2023-05-09T17:05:42.670Z,79.39
2023-05-09T17:08:08.989Z,79.30
2023-05-09T17:10:37.786Z,80.26
2023-05-09T17:13:07.609Z,82.46
2023-05-09T17:15:34.473Z,82.36
2023-05-09T17:18:12.310Z,83.19
2023-05-09T17:20:40.007Z,82.90
2023-05-09T17:23:06.326Z,81.38
2023-05-09T17:25:33.394Z,83.30
2023-05-09T17:27:59.723Z,86.29
2023-05-09T17:30:26.202Z,88.24
2023-05-09T17:32:52.589Z,90.06
2023-05-09T17:35:20.689Z,89.24
2023-05-09T17:37:47.011Z,89.47
2023-05-09T17:40:13.463Z,91.32
2023-05-09T17:42:40.298Z,91.47
2023-05-09T17:45:06.951Z,91.55
2023-05-09T17:47:33.387Z,92.66
2023-05-09T17:49:59.701Z,92.79
2023-05-09T17:52:26.016Z,93.72
2023-05-09T17:54:52.319Z,96.21
2023-05-09T17:57:18.626Z,100.00
2023-05-09T17:59:46.683Z,100.00
2023-05-09T18:02:14.108Z,99.25
2023-05-09T18:04:40.441Z,100.00
2023-05-09T18:07:08.278Z,99.53
2023-05-09T18:09:34.637Z,100.00
2023-05-09T18:12:00.922Z,100.00
2023-05-09T18:14:27.246Z,100.00
2023-05-09T18:16:53.563Z,100.00
2023-05-09T18:19:19.863Z,100.00
2023-05-09T18:21:46.824Z,100.00
2023-05-09T18:24:14.343Z,100.00
2023-05-09T18:26:41.839Z,100.00
2023-05-09T18:29:09.495Z,100.00
2023-05-09T18:31:38.769Z,100.00
2023-05-09T18:34:05.920Z,100.00
2023-05-09T18:36:32.215Z,100.00
2023-05-09T18:38:59.771Z,100.00
2023-05-09T18:41:29.123Z,100.00
2023-05-09T18:43:57.264Z,100.00
2023-05-09T18:46:28.079Z,100.00
2023-05-09T18:48:55.444Z,100.00
2023-05-09T18:51:22.901Z,100.00
2023-05-09T18:53:49.311Z,100.00
2023-05-09T18:56:18.864Z,100.00
2023-05-09T18:58:48.774Z,100.00
2023-05-09T19:01:15.205Z,100.00
2023-05-09T19:03:46.016Z,100.00
2023-05-09T19:06:13.411Z,100.00
2023-05-09T19:08:41.553Z,100.00
2023-05-09T19:11:08.049Z,100.00
2023-05-09T19:13:38.157Z,100.00
2023-05-09T19:16:04.992Z,100.00
2023-05-09T19:18:31.282Z,100.00
2023-05-09T19:20:57.847Z,100.00
2023-05-09T19:23:26.566Z,100.00
2023-05-09T19:25:54.000Z,100.00
2023-05-09T19:28:21.251Z,100.00
2023-05-09T19:30:47.608Z,100.00
2023-05-09T19:33:13.985Z,100.00
2023-05-09T19:35:43.782Z,100.00
2023-05-09T19:38:14.316Z,100.00
2023-05-09T19:40:41.062Z,100.00
2023-05-09T19:43:07.429Z,100.00
2023-05-09T19:45:33.737Z,100.00
2023-05-09T19:48:00.668Z,100.00
2023-05-09T19:50:27.201Z,100.00
2023-05-09T19:52:53.544Z,100.00
2023-05-09T19:55:23.415Z,100.00
2023-05-09T19:57:52.016Z,100.00
2023-05-09T20:00:18.726Z,100.00
2023-05-09T20:02:45.444Z,100.00
2023-05-09T20:05:11.915Z,100.00
2023-05-09T20:07:38.222Z,100.00
2023-05-09T20:10:04.708Z,100.00
2023-05-09T20:12:32.011Z,100.00
2023-05-09T20:14:58.323Z,100.00
2023-05-09T20:17:24.662Z,100.00
2023-05-09T20:19:52.373Z,100.00
2023-05-09T20:22:18.701Z,100.00
2023-05-09T20:24:45.219Z,100.00
2023-05-09T20:27:13.328Z,100.00
2023-05-09T20:29:39.747Z,100.00
2023-05-09T20:32:06.365Z,100.00
2023-05-09T20:34:32.815Z,100.00
2023-05-09T20:36:59.089Z,100.00
2023-05-09T20:39:27.511Z,100.00
2023-05-09T20:41:55.730Z,100.00
2023-05-09T20:44:22.061Z,100.00
2023-05-09T20:46:51.398Z,100.00
2023-05-09T20:49:18.400Z,100.00
2023-05-09T20:51:48.887Z,100.00
2023-05-09T20:54:15.339Z,100.00
2023-05-09T20:56:43.708Z,100.00
2023-05-09T20:59:10.028Z,100.00
2023-05-09T21:01:36.869Z,100.00
2023-05-09T21:04:10.560Z,100.00
2023-05-09T21:06:36.998Z,100.00
2023-05-09T21:09:03.794Z,100.00
2023-05-09T21:11:30.226Z,100.00
2023-05-09T21:13:56.583Z,100.00
2023-05-09T21:16:23.186Z,100.00
2023-05-09T21:18:49.642Z,100.00
2023-05-09T21:21:16.023Z,100.00
2023-05-09T21:23:42.402Z,100.00
2023-05-09T21:26:08.971Z,100.00
2023-05-09T21:28:35.273Z,100.00
2023-05-09T21:31:02.003Z,100.00
2023-05-09T21:33:31.520Z,100.00
2023-05-09T21:35:59.114Z,100.00
2023-05-09T21:38:25.466Z,100.00
2023-05-09T21:40:51.815Z,100.00
2023-05-09T21:43:18.312Z,100.00
2023-05-09T21:45:44.984Z,100.00
2023-05-09T21:48:11.439Z,100.00
2023-05-09T21:50:37.796Z,100.00
2023-05-09T21:53:04.891Z,100.00
2023-05-09T21:55:33.271Z,100.00
2023-05-09T21:57:59.626Z,100.00
2023-05-09T22:00:25.987Z,100.00
2023-05-09T22:02:52.507Z,100.00
2023-05-09T22:05:19.046Z,100.00
2023-05-09T22:07:45.358Z,100.00
2023-05-09T22:10:12.123Z,100.00
2023-05-09T22:12:39.711Z,100.00
2023-05-09T22:15:06.464Z,100.00
2023-05-09T22:17:33.275Z,100.00
2023-05-09T22:19:59.615Z,100.00
2023-05-09T22:22:26.905Z,100.00
2023-05-09T22:24:53.377Z,100.00
2023-05-09T22:27:19.847Z,100.00
2023-05-09T22:29:46.520Z,100.00
2023-05-09T22:32:12.887Z,100.00
2023-05-09T22:34:39.244Z,100.00
2023-05-09T22:37:05.588Z,100.00
2023-05-09T22:39:31.901Z,100.00
2023-05-09T22:41:58.263Z,100.00
2023-05-09T22:44:24.764Z,100.00
2023-05-09T22:46:51.042Z,100.00
2023-05-09T22:49:17.674Z,100.00
2023-05-09T22:51:43.948Z,100.00
2023-05-09T22:54:10.252Z,100.00
2023-05-09T22:56:36.637Z,100.00
2023-05-09T22:59:02.939Z,100.00
2023-05-09T23:01:29.382Z,100.00
2023-05-09T23:03:55.754Z,100.00
2023-05-09T23:06:22.083Z,100.00
2023-05-09T23:08:48.427Z,100.00
2023-05-09T23:11:14.754Z,100.00
2023-05-09T23:13:41.162Z,100.00
2023-05-09T23:16:07.531Z,100.00
2023-05-09T23:18:33.894Z,100.00
2023-05-09T23:21:00.228Z,100.00
2023-05-09T23:23:26.552Z,100.00
2023-05-09T23:25:52.854Z,100.00
2023-05-09T23:28:21.455Z,100.00
2023-05-09T23:30:47.768Z,100.00
2023-05-09T23:33:14.079Z,100.00
2023-05-09T23:35:40.419Z,100.00
2023-05-09T23:38:06.715Z,100.00
2023-05-09T23:40:33.045Z,100.00
2023-05-09T23:42:59.349Z,100.00
2023-05-09T23:45:25.812Z,100.00
2023-05-09T23:47:52.323Z,100.00
2023-05-09T23:50:18.868Z,100.00
2023-05-09T23:52:48.332Z,100.00
2023-05-09T23:55:14.717Z,100.00
2023-05-09T23:57:41.650Z,100.00
